Pronóstico
Mapa Interactivo
Aviación
Climatología
Hidrometeorología
Agrometeorología
Estaciones Automáticas
Transparencia
OMM WMO
Portada
Institución
Noticias
Imágenes
Tsunami
Historial
Boletines y Alertas
Contactos
Buscar Contenidos
Informe del Tiempo

                                          SANTO DOMINGO 23 DE ENERO DEL 2018

 

 

FTDR31 MDSD 232200Z
TAF 

 

TAF MDPP 232200Z 2400/2500 09005KT 9999 FEW018=

TAF MDST 232200Z 2400/2500 13008KT 9999 SCT024 PROB30 2400/2406 6000 -RA BECMG 2404/2406 00000KT=

TAF MDPC 232200Z 2400/2500 06005KT 9999 FEW020 PROB30 2401/2407 8000 -SH SCT016 SCT070=

TAF MDBH 232200Z 2400/2500 13012KT 9999 FEW018 SCT070=

TAF MDJB 232200Z 2400/2500 00000KT 9999 FEW018 PROB40 2404/2410 5000 BR BECMG 2413/2415 04006KT=

TAF MDSD 232200Z 2400/2500 04004KT 9999 FEW016CB BKN016 SCT300 PROB30 2400/2406 7000 RA FEW014CB BKN016 BKN070=

TAF MDLR 232200Z 2400/2500 00000KT 9999 SCT018 SCT300 PROB30 2400/2406 7000 -RA BKN016 SCT070 BECMG 2415/2417 00000KT=

TAF MDCY 232200Z 2400/2500 09010KT 9999 SCT020 SCT300 PRO30 2400/2406 8000 SH SCT014 SCT070 BECMG 2400/2402 00000KT= 

MDPP AEROPUERTO INTERNACIONAL LA UNION PUERTO PLATA

MDST AEROPUERTO INTERNACIONAL DE SANTIAGO

MDPC AEROPUERTO INTERNACIONAL PUNTA CANA

MDBH AEROPUERTO INTERNACIONAL DE BARAHONA

MDJB AEROPUERTO INTERNACIONAL JOAQUIN BALAGUER

MDSD AEROPUERTO INTERNACIONAL DE LAS AMERICAS

MDLR AEROPUERTO INTERNACIONAL LA ROMANA

MDCY AEROPUERTO INTERNACIONAL DE CATEY

 

MDSD-LICELOTTE ANTIGUA DE TAVAREZ

MDPP-J.ACOSTA MDST-D.VOLQUEZ MDPC-M.OTAÑEZ MDBH-TEZANO MDJB-CAPELLAN MDLR-Y.MEJIA R.MDCY-M.ROJAS